Latest Weather Observations for Coconut Island

IDQ60801

Issued at 11:05 pm EST Friday 31 October 2014 (issued every 30 minutes, with the page automatically refreshed every 10 minutes)

About weather observations | Map of weather stations | Latest weather observations for QLD | Other Formats
Station Details ID: 027054 Name: COCONUT ISLAND Lat: -10.05 Lon: 143.07 Height: 3.5 m
Data from the previous 72 hours. | See also: Recent months at Coconut Island
Date/Time
EST
Temp
°C
App
Temp
°C
Dew
Point
Rel
Hum
%
Delta-T
°C
Wind Press
QNH
hPa
Press
MSL
hPa
Rain
since 9 am
mm
Dir
 
Spd
km/h
Gust
km/h
Spd
kts
Gust
kts
31/11:00pm 25.4 - - - - SE 6 13 3 7 1011.6 1011.5 0.0
31/10:30pm 25.5 - - - - SE 6 13 3 7 1011.6 1011.5 0.0
31/10:00pm 25.7 - - - - ESE 11 20 6 11 1011.5 1011.4 0.0
31/09:30pm 25.9 - - - - ESE 9 17 5 9 1011.2 1011.1 0.0
31/09:00pm 25.9 - - - - ESE 9 17 5 9 1011.0 1010.9 0.0
31/08:30pm 26.1 - - - - ESE 11 20 6 11 1010.5 1010.4 0.0
31/08:00pm 26.0 - - - - ESE 11 19 6 10 1010.0 1009.9 0.0
31/07:30pm 26.1 - - - - ESE 9 19 5 10 1009.6 1009.5 0.0
31/07:00pm 26.2 - - - - ESE 7 17 4 9 1009.2 1009.1 0.0
31/06:30pm 26.4 - - - - ESE 7 13 4 7 1008.9 1008.8 0.0
31/06:00pm 26.9 - - - - ESE 9 17 5 9 1008.7 1008.6 0.0
31/05:30pm 27.5 - - - - ESE 9 17 5 9 1008.5 1008.4 0.0
31/05:00pm 28.7 - - - - ESE 9 15 5 8 1008.2 1008.1 0.0
31/04:30pm 29.5 - - - - ESE 9 19 5 10 1008.0 1007.9 0.0
31/04:00pm 29.5 - - - - ESE 11 19 6 10 1008.1 1008.0 0.0
31/03:30pm 29.8 - - - - ESE 13 22 7 12 1008.2 1008.1 0.0
31/03:00pm 31.6 - - - - ESE 11 19 6 10 1008.4 1008.3 0.0
31/02:30pm 31.3 - - - - ESE 11 22 6 12 1008.6 1008.5 0.0
31/02:00pm 31.3 - - - - ESE 9 20 5 11 1009.1 1009.0 0.0
31/01:30pm 31.5 - - - - ESE 9 19 5 10 1009.5 1009.4 0.0
31/01:00pm 29.9 - - - - ESE 9 17 5 9 1010.1 1010.0 0.0
31/12:30pm 31.1 - - - - ESE 11 19 6 10 1010.6 1010.5 0.0
31/12:00pm 31.1 - - - - ESE 11 19 6 10 1011.0 1010.9 0.0
31/11:30am 31.2 - - - - ESE 9 17 5 9 1011.4 1011.3 0.0
31/11:00am 31.5 - - - - ESE 11 20 6 11 1011.7 1011.6 0.0
31/10:30am 30.0 - - - - ESE 9 19 5 10 1011.8 1011.7 0.0
31/10:00am 29.5 - - - - ESE 11 20 6 11 1012.0 1011.9 0.0
31/09:30am 29.7 - - - - ESE 11 20 6 11 1012.0 1011.9 0.0
31/09:00am 29.1 - - - - ESE 9 19 5 10 1012.1 1012.0 0.0
31/08:30am 28.1 - - - - ESE 9 19 5 10 1011.9 1011.8 0.0
31/08:00am 27.0 - - - - ESE 9 20 5 11 1011.7 1011.6 0.0
31/07:30am 25.8 - - - - ESE 6 11 3 6 1011.5 1011.4 0.0
31/07:00am 25.2 - - - - ESE 7 13 4 7 1011.0 1010.9 0.0
31/06:30am 24.5 - - - - ESE 7 15 4 8 1010.7 1010.6 0.0
31/06:00am 23.8 - - - - SE 6 11 3 6 1010.5 1010.4 0.0
31/05:30am 23.9 - - - - ESE 7 15 4 8 1010.2 1010.1 0.0
31/05:00am 23.8 - - - - SE 7 17 4 9 1009.9 1009.8 0.0
31/04:30am 23.5 - - - - SE 7 15 4 8 1009.5 1009.4 0.0
31/04:00am 23.6 - - - - SE 6 13 3 7 1009.4 1009.3 0.0
31/03:30am 23.7 - - - - SE 7 15 4 8 1009.1 1009.0 0.0
31/03:00am 23.7 - - - - SE 7 15 4 8 1009.2 1009.1 0.0
31/02:30am 23.8 - - - - SE 6 13 3 7 1009.3 1009.2 0.0
31/02:00am 24.0 - - - - SE 7 15 4 8 1009.5 1009.4 0.0
31/01:30am 24.1 - - - - ESE 7 17 4 9 1009.8 1009.7 0.0
31/01:00am 24.2 - - - - SE 7 17 4 9 1010.2 1010.1 0.0
31/12:30am 24.4 - - - - SE 6 9 3 5 1010.5 1010.4 0.0
31/12:00am 24.7 - - - - SE 6 13 3 7 1010.9 1010.8 0.0
 
Date/Time
EST
Temp
°C
App
Temp
°C
Dew
Point
Rel
Hum
%
Delta-T
°C
Wind Press
QNH
hPa
Press
MSL
hPa
Rain
since 9 am
mm
Dir
 
Spd
km/h
Gust
km/h
Spd
kts
Gust
kts
30/11:30pm 24.8 - - - - SE 6 13 3 7 1011.0 1010.9 0.0
30/11:00pm 24.9 - - - - SE 7 17 4 9 1011.1 1011.0 0.0
30/10:30pm 25.3 - - - - SE 6 17 3 9 1011.0 1010.9 0.0
30/10:00pm 25.5 - - - - SE 9 20 5 11 1011.1 1011.0 0.0
30/09:30pm 25.7 - - - - SSE 7 11 4 6 1010.9 1010.8 0.0
30/09:00pm 25.7 - - - - SE 7 15 4 8 1010.4 1010.3 0.0
30/08:30pm 25.7 - - - - SE 7 17 4 9 1010.1 1010.0 0.0
30/08:00pm 25.8 - - - - SE 7 15 4 8 1010.1 1010.0 0.0
30/07:30pm 26.1 - - - - SE 7 15 4 8 1009.8 1009.7 0.0
30/07:00pm 26.3 - - - - SE 9 20 5 11 1009.5 1009.4 0.0
30/06:30pm 26.7 - - - - SE 6 11 3 6 1009.2 1009.1 0.0
30/06:00pm 27.3 - - - - SE 7 15 4 8 1009.0 1008.9 0.0
30/05:30pm 28.1 - - - - SE 6 17 3 9 1008.7 1008.6 0.0
30/05:00pm 28.8 - - - - SSE 6 11 3 6 1008.5 1008.4 0.0
30/04:30pm 29.9 - - - - SE 6 13 3 7 1008.6 1008.5 0.0
30/04:00pm 29.7 - - - - SE 7 15 4 8 1008.5 1008.4 0.0
30/03:30pm 31.2 - - - - SE 6 9 3 5 1008.6 1008.5 0.0
30/03:00pm 30.4 - - - - ESE 9 17 5 9 1008.9 1008.8 0.0
30/02:30pm 30.6 - - - - ESE 7 17 4 9 1009.1 1009.0 0.0
30/02:00pm 30.5 - - - - ESE 9 20 5 11 1009.6 1009.5 0.0
30/01:30pm 30.8 - - - - ESE 9 17 5 9 1009.9 1009.8 0.0
30/01:00pm 31.4 - - - - ESE 7 17 4 9 1010.3 1010.2 0.0
30/12:30pm 31.4 - - - - ESE 9 19 5 10 1010.9 1010.8 0.0
30/12:00pm 32.0 - - - - SE 7 19 4 10 1011.5 1011.4 0.0
30/11:30am 31.9 - - - - ESE 9 17 5 9 1011.7 1011.6 0.0
30/11:00am 30.9 - - - - SE 7 17 4 9 1011.9 1011.8 0.0
30/10:30am 30.9 - - - - ESE 9 15 5 8 1012.0 1011.9 0.0
30/10:00am 30.4 - - - - ESE 7 15 4 8 1012.1 1012.0 0.0
30/09:30am 29.6 - - - - SE 6 13 3 7 1012.3 1012.2 0.0
30/09:00am 28.7 - - - - ESE 9 15 5 8 1012.3 1012.2 0.0
30/08:30am 28.7 - - - - SE 6 13 3 7 1012.2 1012.1 0.0
30/08:00am 26.9 - - - - SE 6 9 3 5 1012.0 1011.9 0.0
30/07:30am 25.7 - - - - SE 6 13 3 7 1011.7 1011.6 0.0
30/07:00am 24.7 - - - - SE 7 15 4 8 1011.3 1011.2 0.0
30/06:30am 24.1 - - - - SE 6 13 3 7 1011.0 1010.9 0.0
30/06:00am 24.0 - - - - SE 6 11 3 6 1010.7 1010.6 0.0
30/05:30am 24.1 - - - - ESE 7 17 4 9 1010.5 1010.4 0.0
30/05:00am 23.9 - - - - SE 6 13 3 7 1010.1 1010.0 0.0
30/04:30am 24.0 - - - - SSE 6 9 3 5 1009.8 1009.7 0.0
30/04:00am 24.0 - - - - SSE 6 9 3 5 1009.7 1009.6 0.0
30/03:30am 24.0 - - - - SSE 6 9 3 5 1009.6 1009.5 0.0
30/03:00am 24.0 - - - - SE 4 9 2 5 1009.8 1009.7 0.0
30/02:30am 24.3 - - - - SE 7 13 4 7 1010.0 1009.9 0.0
30/02:00am 24.3 - - - - SE 7 15 4 8 1010.1 1010.0 0.0
30/01:30am 24.5 - - - - ESE 9 15 5 8 1010.5 1010.4 0.0
30/01:00am 24.7 - - - - ESE 11 17 6 9 1011.0 1010.9 0.0
30/12:30am 24.9 - - - - ESE 9 19 5 10 1011.4 1011.3 0.0
30/12:00am 24.8 - - - - ESE 7 15 4 8 1011.7 1011.6 0.0
 
Date/Time
EST
Temp
°C
App
Temp
°C
Dew
Point
Rel
Hum
%
Delta-T
°C
Wind Press
QNH
hPa
Press
MSL
hPa
Rain
since 9 am
mm
Dir
 
Spd
km/h
Gust
km/h
Spd
kts
Gust
kts
29/11:30pm 25.0 - - - - ESE 9 17 5 9 1011.9 1011.8 0.0
29/11:00pm 25.2 - - - - ESE 11 19 6 10 1012.1 1012.0 0.0
29/10:30pm 25.2 - - - - ESE 11 19 6 10 1012.4 1012.3 0.0
29/10:00pm 25.3 - - - - ESE 11 17 6 9 1012.3 1012.2 0.0
29/09:30pm 25.2 - - - - SE 7 15 4 8 1012.1 1012.0 0.0
29/09:00pm 25.4 - - - - SE 7 15 4 8 1011.8 1011.7 0.0
29/08:30pm 25.7 - - - - SE 7 13 4 7 1011.9 1011.8 0.0
29/08:00pm 26.1 - - - - SE 7 19 4 10 1011.6 1011.5 0.0
29/07:30pm 26.1 - - - - SE 6 11 3 6 1011.2 1011.1 0.0
29/07:00pm 26.5 - - - - SE 6 11 3 6 1010.9 1010.8 0.0
29/06:30pm 26.8 - - - - SE 6 11 3 6 1010.7 1010.6 0.0
29/06:00pm 27.5 - - - - SE 6 9 3 5 1010.4 1010.3 0.0
29/05:30pm 28.3 - - - - SE 6 13 3 7 1010.2 1010.1 0.0
29/05:00pm 29.3 - - - - SE 7 17 4 9 1009.9 1009.8 0.0
29/04:30pm 30.0 - - - - SE 7 19 4 10 1010.0 1009.9 0.0
29/04:00pm 30.4 - - - - SE 7 17 4 9 1009.8 1009.7 0.0
29/03:30pm 30.0 - - - - ESE 9 17 5 9 1009.8 1009.7 0.0
29/03:00pm 29.8 - - - - ESE 11 17 6 9 1010.0 1009.9 0.0
29/02:30pm 30.8 - - - - ESE 9 17 5 9 1010.2 1010.1 0.0
29/02:00pm 29.8 - - - - E 11 19 6 10 1010.6 1010.5 0.0
29/01:30pm 30.8 - - - - ESE 11 19 6 10 1010.8 1010.7 0.0
29/01:00pm 31.1 - - - - ESE 9 17 5 9 1011.0 1010.9 0.0
29/12:30pm 30.9 - - - - ESE 11 17 6 9 1011.5 1011.4 0.0
29/12:00pm 31.3 - - - - ESE 11 19 6 10 1011.8 1011.7 0.0
29/11:30am 30.7 - - - - ESE 11 19 6 10 1012.0 1011.9 0.0
29/11:00am 30.6 - - - - ESE 9 19 5 10 1012.3 1012.2 0.0
29/10:30am 30.7 - - - - E 11 20 6 11 1012.6 1012.5 0.0
29/10:00am 30.7 - - - - E 11 22 6 12 1012.8 1012.7 0.0
29/09:30am 29.7 - - - - E 15 24 8 13 1012.8 1012.7 0.0
29/09:00am 29.2 - - - - E 15 26 8 14 1012.8 1012.7 0.0
29/08:30am 28.5 - - - - E 11 20 6 11 1012.8 1012.7 0.0
29/08:00am 26.9 - - - - E 11 17 6 9 1012.5 1012.4 0.0
29/07:30am 26.0 - - - - E 6 11 3 6 1012.1 1012.0 0.0
29/07:00am 25.4 - - - - E 9 15 5 8 1011.6 1011.5 0.0
29/06:30am 25.1 - - - - ESE 9 15 5 8 1011.2 1011.1 0.0
29/06:00am 24.5 - - - - ESE 7 13 4 7 1011.2 1011.1 0.0
29/05:30am 24.1 - - - - SE 4 7 2 4 1011.0 1010.9 0.0
29/05:00am 24.2 - - - - ESE 7 13 4 7 1010.6 1010.5 0.0
29/04:30am 24.2 - - - - SE 6 11 3 6 1010.6 1010.5 0.0
29/04:00am 24.1 - - - - SE 6 13 3 7 1010.3 1010.2 0.0
29/03:30am 24.4 - - - - SE 4 9 2 5 1010.3 1010.2 0.0
29/03:00am 24.2 - - - - SE 6 13 3 7 1010.2 1010.1 0.0
29/02:30am 24.2 - - - - SE 6 11 3 6 1010.1 1010.0 0.0
29/02:00am 24.4 - - - - SE 6 13 3 7 1010.3 1010.2 0.0
29/01:30am 24.6 - - - - SE 7 13 4 7 1010.5 1010.4 0.0
29/01:00am 24.7 - - - - SE 7 17 4 9 1010.7 1010.6 0.0
29/12:30am 24.8 - - - - SE 7 15 4 8 1010.9 1010.8 0.0
29/12:00am 25.0 - - - - SE 7 15 4 8 1011.1 1011.0 0.0
 
Date/Time
EST
Temp
°C
App
Temp
°C
Dew
Point
Rel
Hum
%
Delta-T
°C
Wind Press
QNH
hPa
Press
MSL
hPa
Rain
since 9 am
mm
Dir
 
Spd
km/h
Gust
km/h
Spd
kts
Gust
kts
28/11:30pm 25.0 - - - - SE 6 13 3 7 1011.5 1011.4 0.0

Other Formats:

Comma delimited format used in spreadsheet applications
http://www.bom.gov.au/fwo/IDQ60801/IDQ60801.94182.axf

JavaScript Object Notation format (JSON) in row-major order
http://www.bom.gov.au/fwo/IDQ60801/IDQ60801.94182.json